Time;durP1;ratioP1;P1;durP2;ratioP2;P2;SDS_P1;SDS_P2;PMS_P1;PMS_P2;Temp;Humidity;BMP_temperature;BMP_pressure;BME280_temperature;BME280_humidity;BME280_pressure;Samples;Min_cycle;Max_cycle;Signal;HPM_P1;HPM_P2
2022/04/22 00:00:53;;;;;;;1.10;0.90;;;10.00;1.00;;;;;;5034787;28;20984;-76
2022/04/22 00:03:21;;;;;;;0.70;0.47;;;10.00;1.00;;;;;;5035557;28;20446;-76
2022/04/22 00:05:49;;;;;;;3.20;2.70;;;10.00;1.00;;;;;;5034456;28;20973;-77
2022/04/22 00:08:18;;;;;;;1.40;1.30;;;10.00;1.00;;;;;;5034394;28;20457;-75
2022/04/22 00:13:32;;;;;;;0.60;0.10;;;10.00;1.00;;;;;;5034598;28;20983;-75
2022/04/22 00:16:00;;;;;;;4.80;2.10;;;9.90;1.00;;;;;;5034516;28;20436;-77
2022/04/22 00:18:28;;;;;;;3.00;0.63;;;9.90;1.00;;;;;;5037724;28;20470;-75
2022/04/22 00:20:56;;;;;;;0.70;0.20;;;9.90;1.00;;;;;;5038315;28;20446;-75
2022/04/22 00:23:27;;;;;;;1.03;0.57;;;9.90;1.00;;;;;;5034042;28;20993;-76
2022/04/22 00:25:58;;;;;;;0.77;0.40;;;9.90;1.00;;;;;;5033438;28;20446;-76
2022/04/22 00:28:25;;;;;;;1.77;0.60;;;9.80;1.00;;;;;;5035096;28;20450;-75
2022/04/22 00:30:53;;;;;;;0.60;0.10;;;9.80;1.00;;;;;;5034060;28;21159;-77
2022/04/22 00:33:21;;;;;;;0.70;0.50;;;9.80;1.00;;;;;;5034428;28;20455;-77
2022/04/22 00:35:49;;;;;;;0.93;0.37;;;9.80;1.00;;;;;;5033426;28;20447;-77
2022/04/22 00:38:17;;;;;;;3.40;3.20;;;9.80;1.00;;;;;;5034099;28;20505;-76
2022/04/22 00:40:45;;;;;;;0.60;0.10;;;9.70;1.00;;;;;;5034364;28;20454;-76
2022/04/22 00:43:22;;;;;;;0.60;0.10;;;9.70;1.00;;;;;;5034150;28;20450;-76
2022/04/22 00:45:51;;;;;;;0.60;0.10;;;9.70;1.00;;;;;;5034058;28;20940;-76
2022/04/22 00:48:20;;;;;;;0.60;0.10;;;9.70;1.00;;;;;;5033996;28;20490;-75
2022/04/22 00:50:49;;;;;;;1.03;0.93;;;9.70;1.00;;;;;;5034588;28;20451;-77
2022/04/22 00:53:17;;;;;;;0.70;0.50;;;9.70;1.00;;;;;;5034246;28;20439;-76
2022/04/22 00:55:46;;;;;;;0.60;0.10;;;9.70;1.00;;;;;;5034091;28;20498;-77
2022/04/22 00:58:14;;;;;;;0.60;0.20;;;9.70;1.00;;;;;;5033864;28;20447;-76
2022/04/22 01:00:44;;;;;;;0.60;0.10;;;9.50;1.00;;;;;;5033374;28;20444;-76
2022/04/22 01:03:12;;;;;;;1.90;0.83;;;9.60;1.00;;;;;;5033983;28;20957;-78
2022/04/22 01:11:11;;;;;;;0.60;0.10;;;9.70;1.00;;;;;;5034573;28;20487;-75
2022/04/22 01:13:39;;;;;;;1.17;0.73;;;9.70;1.00;;;;;;5033325;28;20443;-76
2022/04/22 01:16:08;;;;;;;5.40;1.90;;;9.70;1.00;;;;;;5032472;28;20455;-75
2022/04/22 01:18:37;;;;;;;0.70;0.50;;;9.70;1.00;;;;;;5033659;28;20435;-76
2022/04/22 01:21:06;;;;;;;1.23;1.03;;;9.70;1.00;;;;;;5033189;28;20906;-76
2022/04/22 01:23:34;;;;;;;3.90;2.40;;;9.60;1.00;;;;;;5033467;28;20458;-77
2022/04/22 01:26:03;;;;;;;2.70;1.70;;;9.60;1.00;;;;;;5032997;28;20469;-75
2022/04/22 01:28:31;;;;;;;2.57;2.37;;;9.60;1.00;;;;;;5033435;28;20574;-76
2022/04/22 01:30:59;;;;;;;0.73;0.67;;;9.50;1.00;;;;;;5033178;28;20542;-75
2022/04/22 01:33:28;;;;;;;1.23;0.80;;;9.50;1.00;;;;;;5033475;28;20442;-74
2022/04/22 01:35:56;;;;;;;0.93;0.83;;;9.50;1.00;;;;;;5032534;28;20560;-76
2022/04/22 01:38:25;;;;;;;1.90;0.83;;;9.50;1.00;;;;;;5032629;28;20435;-77
2022/04/22 01:40:54;;;;;;;0.90;0.50;;;9.50;1.00;;;;;;5033769;28;20443;-76
2022/04/22 01:43:22;;;;;;;1.90;1.80;;;9.50;1.00;;;;;;5033507;28;20467;-76
2022/04/22 01:45:52;;;;;;;9.23;2.80;;;9.50;1.00;;;;;;5035346;28;20439;-75
2022/04/22 01:48:20;;;;;;;0.70;0.43;;;9.50;1.00;;;;;;5034051;28;20486;-75
2022/04/22 01:50:48;;;;;;;3.63;2.33;;;9.40;1.00;;;;;;5034129;28;20876;-75
2022/04/22 01:53:17;;;;;;;1.23;1.13;;;9.40;1.00;;;;;;5033226;28;20443;-75
2022/04/22 01:55:47;;;;;;;1.43;0.83;;;9.40;1.00;;;;;;5033663;28;20446;-75
2022/04/22 01:58:15;;;;;;;0.80;0.43;;;9.40;1.00;;;;;;5034047;28;20453;-76
2022/04/22 02:00:43;;;;;;;0.60;0.20;;;9.40;1.00;;;;;;5047614;28;20549;-76
2022/04/22 02:03:10;;;;;;;1.37;0.30;;;9.40;1.00;;;;;;5043573;28;20465;-76
2022/04/22 02:05:40;;;;;;;0.60;0.10;;;9.50;1.00;;;;;;5035718;28;20483;-76
2022/04/22 02:08:09;;;;;;;0.60;0.30;;;9.50;1.00;;;;;;5033388;28;20892;-76
2022/04/22 02:10:37;;;;;;;3.23;2.93;;;9.50;1.00;;;;;;5032962;28;20447;-76
2022/04/22 02:13:07;;;;;;;0.90;0.60;;;9.50;1.00;;;;;;5032284;28;20981;-77
2022/04/22 02:15:35;;;;;;;0.70;0.47;;;9.50;1.00;;;;;;5033100;28;20542;-76
2022/04/22 02:18:03;;;;;;;2.20;0.60;;;9.50;1.00;;;;;;5033555;28;20464;-77
2022/04/22 02:20:31;;;;;;;3.33;3.03;;;9.50;1.00;;;;;;5032805;28;20481;-76
2022/04/22 02:22:58;;;;;;;1.90;1.80;;;9.50;1.00;;;;;;5031768;28;20968;-77
2022/04/22 02:25:26;;;;;;;0.60;0.10;;;9.50;1.00;;;;;;5030346;28;20470;-76
2022/04/22 02:30:41;;;;;;;19.67;3.80;;;;;;;;;;5032469;28;20477;-77
2022/04/22 02:33:09;;;;;;;1.10;0.53;;;9.40;1.00;;;;;;5038870;28;20443;-75
2022/04/22 02:35:37;;;;;;;3.80;1.70;;;9.50;1.00;;;;;;5046603;28;20731;-75
2022/04/22 02:38:05;;;;;;;1.73;1.07;;;9.40;1.00;;;;;;5039150;28;20431;-76
2022/04/22 02:46:05;;;;;;;1.17;0.67;;;9.40;1.00;;;;;;5011622;28;20452;-76
2022/04/22 02:48:33;;;;;;;1.73;0.37;;;9.40;1.00;;;;;;5012056;28;20486;-76
2022/04/22 02:51:01;;;;;;;0.80;0.50;;;9.40;1.00;;;;;;5012027;28;20535;-76
2022/04/22 02:53:29;;;;;;;1.53;0.97;;;9.40;1.00;;;;;;5012245;28;20486;-76
2022/04/22 02:55:58;;;;;;;1.10;0.70;;;9.40;1.00;;;;;;5012573;28;20590;-77
2022/04/22 02:58:26;;;;;;;0.80;0.40;;;9.40;1.00;;;;;;5021620;28;20444;-77
2022/04/22 03:00:54;;;;;;;2.43;2.33;;;9.30;1.00;;;;;;5034192;28;20454;-77
2022/04/22 03:03:23;;;;;;;0.90;0.80;;;9.30;1.00;;;;;;5033073;28;20451;-75
2022/04/22 03:05:52;;;;;;;3.33;1.07;;;9.30;1.00;;;;;;5035498;28;20443;-77
2022/04/22 03:08:20;;;;;;;0.60;0.10;;;9.20;1.00;;;;;;5033450;28;20483;-76
2022/04/22 03:10:48;;;;;;;0.60;0.10;;;9.20;1.00;;;;;;5031041;28;20890;-77
2022/04/22 03:13:16;;;;;;;0.80;0.60;;;9.20;1.00;;;;;;5027762;28;20455;-76
2022/04/22 03:15:44;;;;;;;0.60;0.20;;;9.20;1.00;;;;;;5031829;28;20447;-76
2022/04/22 03:18:12;;;;;;;0.70;0.33;;;9.10;1.00;;;;;;5030758;28;20755;-76
2022/04/22 03:20:42;;;;;;;0.60;0.10;;;;;;;;;;5031391;28;20435;-77
2022/04/22 03:23:10;;;;;;;0.60;0.10;;;9.00;1.00;;;;;;5031505;28;20443;-76
2022/04/22 03:25:40;;;;;;;0.60;0.10;;;9.00;1.00;;;;;;5030176;28;20443;-77
2022/04/22 03:28:08;;;;;;;1.13;1.13;;;9.00;1.00;;;;;;5030886;28;20489;-77
2022/04/22 03:30:37;;;;;;;0.90;0.50;;;9.00;1.00;;;;;;5031914;28;20894;-76
2022/04/22 03:33:05;;;;;;;3.27;2.47;;;9.00;1.00;;;;;;5031818;28;20574;-76
2022/04/22 03:35:34;;;;;;;7.50;3.60;;;;;;;;;;5031475;28;20452;-76
2022/04/22 03:38:03;;;;;;;4.80;3.50;;;8.90;1.00;;;;;;5031074;28;20990;-77
2022/04/22 03:40:31;;;;;;;0.80;0.67;;;8.80;1.00;;;;;;5031405;28;20450;-76
2022/04/22 03:42:59;;;;;;;0.97;0.83;;;8.80;1.00;;;;;;5031362;28;20550;-77
2022/04/22 03:45:27;;;;;;;6.20;5.70;;;8.80;1.00;;;;;;5035214;28;20450;-77
2022/04/22 03:47:58;;;;;;;0.80;0.30;;;;;;;;;;5037484;28;20962;-77
2022/04/22 03:50:26;;;;;;;0.60;0.20;;;8.70;1.00;;;;;;5034678;28;20462;-77
2022/04/22 03:52:54;;;;;;;1.23;0.67;;;8.70;1.00;;;;;;5031380;28;20533;-75
2022/04/22 03:55:23;;;;;;;0.60;0.10;;;8.70;1.00;;;;;;5030555;28;20471;-77
2022/04/22 04:00:36;;;;;;;0.60;0.20;;;8.70;1.00;;;;;;5034788;28;20454;-75
2022/04/22 04:03:04;;;;;;;0.60;0.20;;;8.70;1.00;;;;;;5035325;28;20582;-76
2022/04/22 04:05:32;;;;;;;0.60;0.33;;;8.70;1.00;;;;;;5036136;28;21036;-75
2022/04/22 04:08:01;;;;;;;5.80;1.50;;;8.70;1.00;;;;;;5035272;28;20454;-75
2022/04/22 04:16:01;;;;;;;1.43;0.57;;;8.70;1.00;;;;;;5036543;28;21025;-75
2022/04/22 04:18:31;;;;;;;2.40;1.17;;;8.70;1.00;;;;;;5036401;28;20469;-76
2022/04/22 04:23:45;;;;;;;2.90;2.50;;;8.70;1.00;;;;;;5035315;28;20450;-76
2022/04/22 04:26:15;;;;;;;2.07;0.43;;;8.70;1.00;;;;;;5042640;28;20453;-77
2022/04/22 04:28:44;;;;;;;4.87;4.57;;;8.70;1.00;;;;;;5055636;28;20583;-76
2022/04/22 04:31:12;;;;;;;0.60;0.10;;;8.70;1.00;;;;;;5049122;28;20566;-76
2022/04/22 04:33:41;;;;;;;1.07;0.97;;;8.70;1.00;;;;;;5037400;28;20451;-76
2022/04/22 04:36:16;;;;;;;1.90;0.93;;;8.70;1.00;;;;;;5034722;28;20438;-77
2022/04/22 04:38:44;;;;;;;2.00;1.90;;;8.70;1.00;;;;;;5034678;28;20474;-77
2022/04/22 04:41:14;;;;;;;2.40;2.30;;;8.70;1.00;;;;;;5034884;28;20474;-75
2022/04/22 04:43:42;;;;;;;0.97;0.70;;;8.70;1.00;;;;;;5035762;28;20455;-77
2022/04/22 04:46:11;;;;;;;0.70;0.57;;;8.70;1.00;;;;;;5034910;28;20462;-77
2022/04/22 04:48:39;;;;;;;0.60;0.10;;;8.60;1.00;;;;;;5035060;28;20482;-76
2022/04/22 04:51:07;;;;;;;0.60;0.27;;;8.70;1.00;;;;;;5034464;28;20493;-76
2022/04/22 04:53:36;;;;;;;0.60;0.10;;;;;;;;;;5034129;28;20960;-77
2022/04/22 04:56:04;;;;;;;0.60;0.10;;;8.70;1.00;;;;;;5034091;28;20449;-76
2022/04/22 04:58:33;;;;;;;0.60;0.10;;;8.80;1.00;;;;;;5036797;28;20764;-77
2022/04/22 05:01:01;;;;;;;0.60;0.10;;;8.80;1.00;;;;;;5046234;28;20454;-75
2022/04/22 05:03:29;;;;;;;0.60;0.20;;;8.80;1.00;;;;;;5038781;28;20446;-77
2022/04/22 05:05:57;;;;;;;5.70;1.10;;;8.90;1.00;;;;;;5033832;28;20453;-77
2022/04/22 05:08:26;;;;;;;1.00;0.83;;;8.90;1.00;;;;;;5033415;28;20451;-77
2022/04/22 05:10:54;;;;;;;4.83;1.53;;;8.90;1.00;;;;;;5033086;28;20450;-76
2022/04/22 05:13:22;;;;;;;2.63;2.40;;;9.00;1.00;;;;;;5033869;28;20454;-77
2022/04/22 05:15:53;;;;;;;0.70;0.40;;;9.00;1.00;;;;;;5033720;28;20872;-76
2022/04/22 05:18:21;;;;;;;0.80;0.80;;;9.00;1.00;;;;;;5033243;28;20980;-76
2022/04/22 05:20:49;;;;;;;6.13;2.90;;;9.10;1.00;;;;;;5034043;28;20453;-75
2022/04/22 05:23:17;;;;;;;0.90;0.60;;;9.10;1.00;;;;;;5035670;28;20953;-77
2022/04/22 05:25:45;;;;;;;0.60;0.13;;;9.20;1.00;;;;;;5034717;28;20549;-78
2022/04/22 05:28:13;;;;;;;2.10;1.90;;;9.30;1.00;;;;;;5035473;28;20535;-76
2022/04/22 05:33:27;;;;;;;0.60;0.10;;;9.30;1.00;;;;;;5037747;28;20485;-77
2022/04/22 05:35:55;;;;;;;1.90;1.70;;;9.30;1.00;;;;;;5029822;28;20458;-76
2022/04/22 05:38:24;;;;;;;1.63;1.17;;;9.40;1.00;;;;;;5014593;28;20455;-77
2022/04/22 05:40:52;;;;;;;3.27;3.07;;;9.40;1.00;;;;;;5015032;28;20935;-77
2022/04/22 05:43:20;;;;;;;1.33;0.93;;;9.40;1.00;;;;;;5014483;28;20962;-77
2022/04/22 05:45:49;;;;;;;2.57;2.37;;;9.50;1.00;;;;;;5034010;28;20538;-78
2022/04/22 05:48:17;;;;;;;1.23;1.13;;;9.50;1.00;;;;;;5023426;28;20506;-79
2022/04/22 05:50:46;;;;;;;6.53;4.83;;;9.60;1.00;;;;;;5033688;28;20589;-78
2022/04/22 05:53:14;;;;;;;0.80;0.30;;;9.60;1.00;;;;;;5034967;28;20531;-78
2022/04/22 05:55:43;;;;;;;0.60;0.20;;;;;;;;;;5035988;28;20446;-78
2022/04/22 05:58:11;;;;;;;2.97;2.77;;;9.70;1.00;;;;;;5037343;28;20451;-78
2022/04/22 06:00:39;;;;;;;0.60;0.10;;;9.80;1.00;;;;;;5022580;28;20448;-79
2022/04/22 06:03:07;;;;;;;0.60;0.20;;;9.80;1.00;;;;;;5020188;28;20536;-79
2022/04/22 06:05:36;;;;;;;3.60;2.73;;;9.80;1.00;;;;;;5040824;28;20489;-78
2022/04/22 06:10:55;;;;;;;3.10;1.60;;;10.00;1.00;;;;;;5038690;28;20529;-77
2022/04/22 06:13:23;;;;;;;0.60;0.10;;;10.10;1.00;;;;;;5035203;28;20470;-78
2022/04/22 06:15:51;;;;;;;0.60;0.10;;;10.10;1.00;;;;;;5035042;28;20439;-78
2022/04/22 06:18:19;;;;;;;0.97;0.87;;;10.20;1.00;;;;;;5032495;28;20458;-80
2022/04/22 06:20:50;;;;;;;0.60;0.10;;;10.30;1.00;;;;;;5028055;28;20475;-77
2022/04/22 06:23:19;;;;;;;0.80;0.30;;;10.40;1.00;;;;;;5016237;28;21041;-77
2022/04/22 06:25:48;;;;;;;4.30;0.93;;;10.40;1.00;;;;;;5019336;28;20522;-77
2022/04/22 06:28:16;;;;;;;0.60;0.20;;;10.40;1.00;;;;;;5033868;28;20515;-80
2022/04/22 06:30:46;;;;;;;0.60;0.10;;;10.60;1.00;;;;;;5033149;28;21111;-77
2022/04/22 06:33:16;;;;;;;1.13;0.40;;;10.60;1.00;;;;;;5031555;28;20459;-78
2022/04/22 06:35:44;;;;;;;4.33;2.03;;;10.70;1.00;;;;;;5034690;28;20490;-78
2022/04/22 06:38:16;;;;;;;0.60;0.17;;;10.70;1.00;;;;;;5034033;28;20462;-78
2022/04/22 06:46:30;;;;;;;2.80;2.60;;;10.70;1.00;;;;;;5026900;28;21032;-76
2022/04/22 06:48:58;;;;;;;3.13;1.27;;;10.70;1.00;;;;;;5032815;28;20442;-77
2022/04/22 06:51:28;;;;;;;1.57;0.67;;;10.70;1.00;;;;;;5033468;28;20595;-77
2022/04/22 06:53:56;;;;;;;7.90;4.70;;;10.80;1.00;;;;;;5048137;28;20783;-77
2022/04/22 06:56:27;;;;;;;2.53;1.63;;;10.80;1.00;;;;;;5055261;28;20454;-78
2022/04/22 06:58:55;;;;;;;2.20;1.07;;;10.80;1.00;;;;;;5065451;28;20438;-78
2022/04/22 07:01:24;;;;;;;2.30;1.90;;;10.90;1.00;;;;;;5072973;28;20446;-78
2022/04/22 07:04:11;;;;;;;5.33;2.73;;;10.90;1.00;;;;;;5059761;28;20517;-77
2022/04/22 07:06:41;;;;;;;1.23;1.13;;;11.00;1.00;;;;;;5056844;28;20454;-76
2022/04/22 07:09:10;;;;;;;1.03;0.80;;;11.10;1.00;;;;;;5054537;28;20466;-76
2022/04/22 07:11:42;;;;;;;0.97;0.63;;;11.20;1.00;;;;;;5057125;28;20510;-78
2022/04/22 07:14:10;;;;;;;0.60;0.30;;;11.20;1.00;;;;;;5059202;28;20465;-78
2022/04/22 07:16:43;;;;;;;1.77;0.60;;;11.30;1.00;;;;;;5060620;28;20466;-78
2022/04/22 07:19:12;;;;;;;0.97;0.87;;;11.40;1.00;;;;;;5058153;28;20442;-78
2022/04/22 07:21:40;;;;;;;1.17;0.77;;;;;;;;;;5053932;28;20526;-76
2022/04/22 07:24:10;;;;;;;0.80;0.40;;;;;;;;;;5053842;28;20444;-78
2022/04/22 07:26:41;;;;;;;2.40;2.13;;;11.70;1.00;;;;;;5045945;28;20455;-79
2022/04/22 07:29:13;;;;;;;0.60;0.20;;;11.80;1.00;;;;;;5033096;28;20435;-77
2022/04/22 07:31:41;;;;;;;0.80;0.30;;;11.80;1.00;;;;;;5032610;28;20515;-78
2022/04/22 07:34:10;;;;;;;0.90;0.47;;;;;;;;;;5036797;28;20819;-76
2022/04/22 07:36:39;;;;;;;2.40;1.03;;;;;;;;;;5037818;28;20439;-78
2022/04/22 07:39:07;;;;;;;0.70;0.20;;;12.00;1.00;;;;;;5037133;28;20455;-78
2022/04/22 07:41:40;;;;;;;0.60;0.27;;;12.10;1.00;;;;;;5039645;28;21130;-76
2022/04/22 07:46:59;;;;;;;9.40;8.77;;;12.20;1.00;;;;;;5048890;28;20531;-77
2022/04/22 07:49:28;;;;;;;0.97;0.87;;;12.30;1.00;;;;;;5060097;28;20791;-77
2022/04/22 07:51:57;;;;;;;3.57;3.23;;;12.40;1.00;;;;;;5060421;28;20507;-78
2022/04/22 07:54:27;;;;;;;2.03;1.40;;;;;;;;;;5052899;28;20484;-79
2022/04/22 07:56:57;;;;;;;0.70;0.50;;;;;;;;;;5051853;28;20441;-77
2022/04/22 07:59:28;;;;;;;0.60;0.30;;;;;;;;;;5045198;28;20444;-81
2022/04/22 08:01:58;;;;;;;1.37;1.17;;;;;;;;;;5046254;28;20456;-77
2022/04/22 08:04:27;;;;;;;0.60;0.10;;;12.70;99.90;;;;;;5040701;28;20448;-78
2022/04/22 08:06:55;;;;;;;0.60;0.13;;;12.80;99.90;;;;;;5045367;28;20474;-79
2022/04/22 08:09:44;;;;;;;0.60;0.30;;;12.90;99.90;;;;;;5033039;28;20780;-78
2022/04/22 08:12:15;;;;;;;3.40;2.10;;;12.80;99.90;;;;;;5039918;28;20459;-79
2022/04/22 08:14:43;;;;;;;1.27;1.13;;;12.90;99.90;;;;;;5045995;28;20515;-78
2022/04/22 08:17:12;;;;;;;0.60;0.20;;;;;;;;;;5052878;28;20511;-77
2022/04/22 08:19:43;;;;;;;2.60;2.40;;;;;;;;;;5038597;28;20455;-78
2022/04/22 08:22:12;;;;;;;0.83;0.30;;;;;;;;;;5040825;28;20450;-78
2022/04/22 08:24:41;;;;;;;0.90;0.40;;;;;;;;;;5040375;28;20460;-77
2022/04/22 08:27:10;;;;;;;0.60;0.10;;;;;;;;;;5036283;28;20532;-76
2022/04/22 08:29:44;;;;;;;3.90;1.80;;;13.40;99.90;;;;;;5036194;28;20844;-78
2022/04/22 08:32:12;;;;;;;0.60;0.20;;;13.30;99.90;;;;;;5035119;28;20512;-78
2022/04/22 08:34:40;;;;;;;0.60;0.20;;;13.30;99.90;;;;;;5034764;28;20443;-77
2022/04/22 08:37:08;;;;;;;0.60;0.10;;;;;;;;;;5036062;28;20549;-78
2022/04/22 08:39:36;;;;;;;0.60;0.20;;;13.50;99.90;;;;;;5035714;28;20961;-77
2022/04/22 08:42:24;;;;;;;0.60;0.10;;;13.70;99.90;;;;;;5037231;28;20489;-78
2022/04/22 08:45:07;;;;;;;0.60;0.10;;;13.80;99.90;;;;;;5035591;28;20497;-76
2022/04/22 08:50:22;;;;;;;0.70;0.30;;;14.00;99.90;;;;;;5034779;28;20449;-76
2022/04/22 08:52:56;;;;;;;0.60;0.10;;;14.00;99.90;;;;;;5035596;28;20472;-77
2022/04/22 08:55:25;;;;;;;0.60;0.20;;;14.20;99.90;;;;;;5035810;28;20993;-76
2022/04/22 08:57:55;;;;;;;1.80;1.70;;;14.20;99.90;;;;;;5035261;28;20450;-76
2022/04/22 09:00:27;;;;;;;0.60;0.23;;;14.30;99.90;;;;;;5044647;28;20460;-76
2022/04/22 09:02:55;;;;;;;2.43;2.23;;;14.30;99.90;;;;;;5048303;28;20489;-76
2022/04/22 09:05:25;;;;;;;2.47;1.60;;;14.40;99.90;;;;;;5044776;28;20453;-77
2022/04/22 09:07:53;;;;;;;0.60;0.20;;;;;;;;;;5040243;28;20828;-75
2022/04/22 09:10:22;;;;;;;0.60;0.20;;;14.60;99.90;;;;;;5027700;28;20459;-77
2022/04/22 09:12:52;;;;;;;0.70;0.40;;;14.70;99.90;;;;;;5044511;28;20569;-76
2022/04/22 09:15:24;;;;;;;0.60;0.20;;;14.80;99.90;;;;;;5037014;28;20897;-77
2022/04/22 09:17:57;;;;;;;0.60;0.10;;;14.90;99.90;;;;;;5038311;28;20854;-77
2022/04/22 09:20:30;;;;;;;1.13;0.50;;;15.00;99.90;;;;;;5036197;28;20444;-76
2022/04/22 09:22:58;;;;;;;1.10;0.70;;;14.90;99.90;;;;;;5035103;28;20480;-75
2022/04/22 09:25:28;;;;;;;2.30;1.90;;;14.90;99.90;;;;;;5037602;28;20490;-75
2022/04/22 09:28:07;;;;;;;1.17;0.87;;;14.80;99.90;;;;;;5037617;28;20482;-75
2022/04/22 09:30:40;;;;;;;3.30;1.40;;;14.80;99.90;;;;;;5037090;28;20451;-76
2022/04/22 09:33:09;;;;;;;2.30;1.30;;;15.00;99.90;;;;;;5045513;28;20465;-75
2022/04/22 09:43:57;;;;;;;2.97;1.43;;;15.20;99.90;;;;;;5028100;28;20451;-77
2022/04/22 09:46:30;;;;;;;0.60;0.20;;;15.20;99.90;;;;;;5026452;28;20486;-76
2022/04/22 09:49:00;;;;;;;1.10;0.30;;;15.30;99.90;;;;;;5036915;28;20510;-76
2022/04/22 09:51:32;;;;;;;0.60;0.20;;;;;;;;;;5036981;28;20875;-78
2022/04/22 09:54:02;;;;;;;1.80;1.47;;;;;;;;;;5038586;28;20509;-77
2022/04/22 09:56:31;;;;;;;2.23;1.80;;;15.70;99.90;;;;;;5034128;28;20861;-79
2022/04/22 09:58:59;;;;;;;2.77;1.23;;;15.70;99.90;;;;;;5036479;28;20818;-78
2022/04/22 10:01:28;;;;;;;9.20;1.50;;;15.60;99.90;;;;;;5035862;28;21014;-74
2022/04/22 10:04:17;;;;;;;0.60;0.20;;;15.60;99.90;;;;;;5036060;28;20444;-75
2022/04/22 10:06:46;;;;;;;0.60;0.10;;;15.60;99.90;;;;;;5036022;28;20955;-79
2022/04/22 10:09:15;;;;;;;2.00;1.30;;;15.90;99.90;;;;;;5036476;28;20452;-77
2022/04/22 10:11:46;;;;;;;3.13;1.70;;;15.90;99.90;;;;;;5035138;28;20578;-77
2022/04/22 10:14:16;;;;;;;0.60;0.30;;;15.90;99.90;;;;;;5044820;28;20478;-75
2022/04/22 10:16:46;;;;;;;0.90;0.30;;;15.90;99.90;;;;;;5047595;28;20459;-78
2022/04/22 10:19:15;;;;;;;1.43;1.33;;;15.90;99.90;;;;;;5035687;28;20786;-77
2022/04/22 10:21:44;;;;;;;1.03;0.70;;;16.10;99.90;;;;;;5039881;28;20556;-77
2022/04/22 10:24:14;;;;;;;0.70;0.30;;;16.20;99.90;;;;;;5038875;28;20829;-77
2022/04/22 10:26:43;;;;;;;1.17;0.67;;;16.40;99.90;;;;;;5033444;28;22068;-77
2022/04/22 10:29:12;;;;;;;1.13;0.57;;;16.50;99.90;;;;;;5033338;28;20454;-76
2022/04/22 10:31:41;;;;;;;1.03;0.70;;;16.30;99.90;;;;;;5034887;28;20569;-78
2022/04/22 10:34:12;;;;;;;1.43;0.97;;;16.40;99.90;;;;;;5040896;28;20978;-77
2022/04/22 10:36:40;;;;;;;0.70;0.40;;;16.50;99.90;;;;;;5052073;28;20449;-76
2022/04/22 10:39:08;;;;;;;0.97;0.73;;;16.50;99.90;;;;;;5054293;28;20435;-77
2022/04/22 10:41:45;;;;;;;1.83;0.60;;;16.80;99.90;;;;;;5055178;28;20480;-76
2022/04/22 10:47:15;;;;;;;1.00;0.53;;;17.10;99.90;;;;;;5032408;28;20543;-77
2022/04/22 10:49:46;;;;;;;1.00;0.50;;;17.10;99.90;;;;;;5035997;28;20953;-78
2022/04/22 10:52:17;;;;;;;1.47;1.20;;;17.40;99.90;;;;;;5034550;28;20489;-77
2022/04/22 10:55:10;;;;;;;0.77;0.50;;;17.40;99.90;;;;;;5034359;28;20836;-78
2022/04/22 10:57:42;;;;;;;1.00;0.73;;;17.60;99.90;;;;;;5035255;28;20455;-77
2022/04/22 11:00:29;;;;;;;0.70;0.40;;;17.60;99.90;;;;;;5038162;28;20443;-77
2022/04/22 11:03:13;;;;;;;1.47;1.37;;;17.70;99.90;;;;;;5035674;28;20464;-77
2022/04/22 11:05:47;;;;;;;0.80;0.67;;;17.70;99.90;;;;;;5033811;28;21010;-77
2022/04/22 11:08:40;;;;;;;0.67;0.23;;;17.70;99.90;;;;;;5027770;28;20458;-78
2022/04/22 11:11:15;;;;;;;0.60;0.30;;;17.90;99.90;;;;;;5035685;28;20525;-77
2022/04/22 11:13:45;;;;;;;0.70;0.40;;;18.00;99.90;;;;;;5031172;28;20492;-78
2022/04/22 11:16:25;;;;;;;1.17;1.03;;;18.00;99.90;;;;;;5038002;28;20439;-78
2022/04/22 11:19:36;;;;;;;0.67;0.40;;;18.00;99.90;;;;;;5042635;28;20732;-79
2022/04/22 11:22:07;;;;;;;0.60;0.13;;;18.30;99.90;;;;;;5036890;28;20519;-79
2022/04/22 11:24:36;;;;;;;0.70;0.27;;;18.60;99.90;;;;;;5040493;28;20505;-81
2022/04/22 11:27:08;;;;;;;0.60;0.10;;;18.60;99.90;;;;;;5039807;28;20510;-78
2022/04/22 11:29:36;;;;;;;0.60;0.10;;;18.80;99.90;;;;;;5039553;28;20843;-79
2022/04/22 11:32:12;;;;;;;0.60;0.10;;;19.00;99.90;;;;;;5040927;28;20860;-79
2022/04/22 11:35:03;;;;;;;0.60;0.10;;;19.00;99.90;;;;;;5040049;28;20520;-80
2022/04/22 11:37:33;;;;;;;0.97;0.83;;;;;;;;;;5039272;28;21039;-79
2022/04/22 11:40:01;;;;;;;0.60;0.20;;;18.70;99.90;;;;;;5039822;28;20440;-79
2022/04/22 11:42:29;;;;;;;0.90;0.63;;;18.90;99.90;;;;;;5038013;28;21045;-79
2022/04/22 11:45:05;;;;;;;1.97;1.03;;;18.80;99.90;;;;;;5041521;28;20931;-78
2022/04/22 11:47:33;;;;;;;1.00;0.70;;;18.60;99.90;;;;;;5049606;28;20592;-79
2022/04/22 11:50:01;;;;;;;0.60;0.10;;;18.60;99.90;;;;;;5059342;28;20523;-81
2022/04/22 11:52:30;;;;;;;1.10;0.70;;;18.70;99.90;;;;;;5042729;28;20510;-79
2022/04/22 11:55:06;;;;;;;2.20;1.07;;;18.80;99.90;;;;;;5039354;28;20449;-78
2022/04/22 11:57:35;;;;;;;0.70;0.33;;;18.90;99.90;;;;;;5039848;28;20488;-79
2022/04/22 12:05:43;;;;;;;0.67;0.23;;;19.20;99.90;;;;;;5040543;28;20961;-79
2022/04/22 12:08:13;;;;;;;0.60;0.17;;;19.20;99.90;;;;;;5053055;28;20460;-78
2022/04/22 12:10:44;;;;;;;1.07;0.57;;;19.30;99.90;;;;;;5056695;28;20450;-75
2022/04/22 12:13:13;;;;;;;3.00;2.53;;;19.60;99.90;;;;;;5053814;28;20518;-79
2022/04/22 12:15:46;;;;;;;1.00;0.60;;;19.60;99.90;;;;;;5049730;28;20458;-79
2022/04/22 12:18:33;;;;;;;0.70;0.30;;;19.90;99.90;;;;;;5043982;28;20441;-78
2022/04/22 12:21:02;;;;;;;1.10;0.77;;;19.70;99.90;;;;;;5023372;28;20467;-80
2022/04/22 12:23:38;;;;;;;0.60;0.13;;;19.60;99.90;;;;;;5021142;28;20488;-80
2022/04/22 12:26:14;;;;;;;1.73;1.63;;;19.50;99.90;;;;;;5039504;28;20454;-80
2022/04/22 12:28:58;;;;;;;3.57;3.23;;;;;;;;;;5040364;28;20454;-79
2022/04/22 12:31:27;;;;;;;0.70;0.47;;;;;;;;;;5040984;28;20865;-79
2022/04/22 12:34:00;;;;;;;0.60;0.10;;;19.90;99.90;;;;;;5040380;28;21076;-79
2022/04/22 12:36:29;;;;;;;3.33;3.13;;;;;;;;;;5042681;28;20440;-81
2022/04/22 12:38:57;;;;;;;1.93;0.87;;;;;;;;;;5051508;28;20447;-78
2022/04/22 12:41:26;;;;;;;0.60;0.10;;;19.70;99.90;;;;;;5056022;28;20470;-79
2022/04/22 12:43:56;;;;;;;0.70;0.40;;;19.70;99.90;;;;;;5042075;28;20831;-79
2022/04/22 12:52:14;;;;;;;0.60;0.10;;;;;;;;;;5042778;28;20474;-80
2022/04/22 12:54:45;;;;;;;1.00;0.87;;;19.60;99.90;;;;;;5043208;28;20439;-78
2022/04/22 12:57:25;;;;;;;0.60;0.20;;;19.60;99.90;;;;;;5045788;28;20507;-79
2022/04/22 12:59:55;;;;;;;0.60;0.20;;;19.90;99.90;;;;;;5047672;28;20453;-78
2022/04/22 13:02:27;;;;;;;1.43;1.07;;;;;;;;;;5044632;28;20480;-79
2022/04/22 13:04:58;;;;;;;0.60;0.20;;;20.10;99.90;;;;;;5038349;28;20879;-78
2022/04/22 13:07:27;;;;;;;0.70;0.50;;;20.10;99.90;;;;;;5041442;28;20506;-77
2022/04/22 13:09:55;;;;;;;1.00;0.50;;;20.00;99.90;;;;;;5037671;28;20442;-78
2022/04/22 13:12:24;;;;;;;0.60;0.10;;;20.00;99.90;;;;;;5035769;28;20470;-78
2022/04/22 13:14:53;;;;;;;0.63;0.20;;;20.00;99.90;;;;;;5051359;28;20803;-79
2022/04/22 13:17:24;;;;;;;0.60;0.13;;;20.20;99.90;;;;;;5046123;28;20481;-78
2022/04/22 13:19:52;;;;;;;0.70;0.30;;;20.20;99.90;;;;;;5037493;28;20802;-78
2022/04/22 13:22:20;;;;;;;0.70;0.30;;;20.30;99.90;;;;;;5037457;28;20830;-78
2022/04/22 13:24:48;;;;;;;3.90;1.23;;;;;;;;;;5036119;28;20454;-79
2022/04/22 13:27:16;;;;;;;0.87;0.63;;;20.20;99.90;;;;;;5036262;28;20522;-78
2022/04/22 13:29:46;;;;;;;6.53;6.13;;;20.20;99.90;;;;;;5036197;28;20447;-77
2022/04/22 13:32:14;;;;;;;0.70;0.60;;;20.10;99.90;;;;;;5034793;28;20466;-79
2022/04/22 13:34:42;;;;;;;3.10;0.67;;;19.90;99.90;;;;;;5035421;28;20517;-79
2022/04/22 13:37:11;;;;;;;0.80;0.30;;;19.70;99.90;;;;;;5036268;28;20443;-79
2022/04/22 13:39:39;;;;;;;0.60;0.10;;;19.70;99.90;;;;;;5042792;28;20457;-78
2022/04/22 13:42:07;;;;;;;0.60;0.10;;;19.60;99.90;;;;;;5039015;28;20848;-78
2022/04/22 13:52:55;;;;;;;0.60;0.10;;;20.20;99.90;;;;;;5048424;28;20466;-80
2022/04/22 13:55:22;;;;;;;0.70;0.30;;;20.30;99.90;;;;;;5039413;28;20995;-80
2022/04/22 13:57:56;;;;;;;1.07;0.50;;;20.80;99.90;;;;;;5038271;28;20449;-79
2022/04/22 14:00:27;;;;;;;0.70;0.20;;;20.80;99.90;;;;;;5040882;28;20442;-79
2022/04/22 14:02:57;;;;;;;3.00;1.60;;;21.00;99.90;;;;;;5045656;28;21208;-78
2022/04/22 14:05:25;;;;;;;1.30;1.20;;;20.80;99.90;;;;;;5054029;28;20444;-79
2022/04/22 14:07:53;;;;;;;2.73;1.70;;;20.40;99.90;;;;;;5051766;28;20516;-79
2022/04/22 14:10:21;;;;;;;1.33;0.83;;;20.20;99.90;;;;;;5048566;28;20427;-77
2022/04/22 14:12:49;;;;;;;1.53;0.90;;;20.00;99.90;;;;;;5050673;28;20467;-79
2022/04/22 14:15:18;;;;;;;3.23;0.90;;;20.00;99.90;;;;;;5048398;28;20501;-77
2022/04/22 14:17:48;;;;;;;1.87;0.60;;;19.90;99.90;;;;;;5046481;28;20478;-77
2022/04/22 14:20:18;;;;;;;0.90;0.53;;;19.70;99.90;;;;;;5045919;28;20562;-77
2022/04/22 14:22:46;;;;;;;0.70;0.20;;;;;;;;;;5044803;28;20459;-78
2022/04/22 14:25:16;;;;;;;1.77;1.07;;;;;;;;;;5044363;28;20460;-79
2022/04/22 14:27:44;;;;;;;1.83;1.53;;;;;;;;;;5044507;28;20439;-80
2022/04/22 14:30:12;;;;;;;0.70;0.50;;;20.10;99.90;;;;;;5041952;28;20887;-78
2022/04/22 14:32:40;;;;;;;1.50;1.40;;;20.00;99.90;;;;;;5039849;28;20461;-79
2022/04/22 14:35:09;;;;;;;0.87;0.43;;;19.90;99.90;;;;;;5038432;28;21009;-80
2022/04/22 14:37:38;;;;;;;0.60;0.20;;;19.80;99.90;;;;;;5040204;28;20460;-77